Time;durP1;ratioP1;P1;durP2;ratioP2;P2;SDS_P1;SDS_P2;PMS_P1;PMS_P2;Temp;Humidity;BMP_temperature;BMP_pressure;BME280_temperature;BME280_humidity;BME280_pressure;Samples;Min_cycle;Max_cycle;Signal;HPM_P1;HPM_P2
2023/12/06 00:00:21;;;;;;;12.38;5.75;;;2.80;90.90;;;;;;6278249;22;20197;-72
2023/12/06 00:02:49;;;;;;;9.35;5.25;;;2.80;90.90;;;;;;6278079;22;20162;-72
2023/12/06 00:05:18;;;;;;;30.13;19.40;;;2.80;91.20;;;;;;6277802;22;20161;-73
2023/12/06 00:07:45;;;;;;;21.35;15.80;;;2.80;91.30;;;;;;6277863;22;20244;-72
2023/12/06 00:10:13;;;;;;;11.60;8.07;;;2.80;91.30;;;;;;6277840;22;20166;-72
2023/12/06 00:12:40;;;;;;;11.95;8.32;;;2.80;91.30;;;;;;6278152;22;20165;-72
2023/12/06 00:15:09;;;;;;;10.23;7.32;;;2.80;91.20;;;;;;6277761;22;20165;-72
2023/12/06 00:17:36;;;;;;;8.40;6.88;;;2.80;91.40;;;;;;6277659;22;20555;-72
2023/12/06 00:20:08;;;;;;;9.57;5.90;;;2.80;91.40;;;;;;6277711;22;20200;-73
2023/12/06 00:22:35;;;;;;;14.95;8.38;;;2.80;91.10;;;;;;6278243;22;20153;-72
2023/12/06 00:25:07;;;;;;;8.40;5.88;;;2.80;91.00;;;;;;6278103;22;20162;-73
2023/12/06 00:27:35;;;;;;;9.70;5.78;;;2.70;91.10;;;;;;6277758;22;20207;-72
2023/12/06 00:30:03;;;;;;;12.55;8.57;;;2.80;91.30;;;;;;6277621;22;20662;-73
2023/12/06 00:32:30;;;;;;;11.10;7.40;;;2.80;91.40;;;;;;6277785;22;20173;-72
2023/12/06 00:34:57;;;;;;;12.43;7.10;;;2.90;91.30;;;;;;6277653;22;20245;-73
2023/12/06 00:37:24;;;;;;;7.97;4.55;;;2.90;91.30;;;;;;6277585;22;20240;-72
2023/12/06 00:39:52;;;;;;;6.18;3.85;;;3.00;91.50;;;;;;6277548;22;20261;-72
2023/12/06 00:42:19;;;;;;;5.80;4.25;;;3.10;91.40;;;;;;6277444;22;20624;-73
2023/12/06 00:44:48;;;;;;;7.13;4.10;;;3.10;91.40;;;;;;6275697;22;20999;-73
2023/12/06 00:47:15;;;;;;;3.50;2.60;;;3.20;91.30;;;;;;6277849;22;20169;-73
2023/12/06 00:49:42;;;;;;;5.85;2.42;;;3.20;91.30;;;;;;6277505;22;20169;-72
2023/12/06 00:52:09;;;;;;;3.63;2.38;;;3.30;91.40;;;;;;6277982;22;20172;-73
2023/12/06 00:54:36;;;;;;;5.75;2.60;;;3.30;91.30;;;;;;6277316;22;20197;-72
2023/12/06 00:57:03;;;;;;;3.95;2.63;;;3.40;91.10;;;;;;6277794;22;20242;-72
2023/12/06 00:59:30;;;;;;;4.10;2.67;;;3.50;91.20;;;;;;6277001;22;20185;-73
2023/12/06 01:01:59;;;;;;;4.15;2.80;;;3.50;91.30;;;;;;6277750;22;20166;-72
2023/12/06 01:04:26;;;;;;;3.88;2.28;;;3.60;91.20;;;;;;6277329;22;20160;-74
2023/12/06 01:06:53;;;;;;;3.47;1.75;;;3.60;90.90;;;;;;6277336;22;20197;-73
2023/12/06 01:09:20;;;;;;;3.03;1.73;;;3.70;90.80;;;;;;6277676;22;20165;-73
2023/12/06 01:11:47;;;;;;;2.97;1.88;;;3.70;90.90;;;;;;6277795;22;20264;-73
2023/12/06 01:14:14;;;;;;;3.90;2.38;;;3.90;90.60;;;;;;6276794;22;20173;-73
2023/12/06 01:16:41;;;;;;;5.75;2.38;;;3.80;90.60;;;;;;6277214;22;20608;-73
2023/12/06 01:19:10;;;;;;;4.15;1.98;;;3.80;90.50;;;;;;6277384;22;20236;-72
2023/12/06 01:21:37;;;;;;;3.40;2.20;;;3.90;90.50;;;;;;6277525;22;20197;-72
2023/12/06 01:24:05;;;;;;;3.35;1.98;;;3.90;90.30;;;;;;6277511;22;20172;-72
2023/12/06 01:26:32;;;;;;;3.72;2.95;;;3.90;90.30;;;;;;6277566;22;20193;-73
2023/12/06 01:29:03;;;;;;;3.63;2.53;;;3.90;90.40;;;;;;6276888;22;20177;-73
2023/12/06 01:31:30;;;;;;;2.70;1.35;;;3.90;90.30;;;;;;6277200;22;20150;-73
2023/12/06 01:33:57;;;;;;;3.33;1.95;;;3.90;90.30;;;;;;6277119;22;20212;-72
2023/12/06 01:36:26;;;;;;;3.05;1.63;;;3.90;90.10;;;;;;6277475;22;20165;-73
2023/12/06 01:38:53;;;;;;;3.28;1.83;;;4.00;90.30;;;;;;6277262;22;20268;-72
2023/12/06 01:41:21;;;;;;;3.42;1.73;;;4.00;90.20;;;;;;6277403;22;20197;-73
2023/12/06 01:43:49;;;;;;;3.53;1.90;;;4.00;90.10;;;;;;6277030;22;20240;-72
2023/12/06 01:46:16;;;;;;;3.00;1.23;;;4.00;89.90;;;;;;6246893;23;20170;-73
2023/12/06 01:48:43;;;;;;;2.72;1.35;;;4.00;89.90;;;;;;6246316;23;20628;-73
2023/12/06 01:51:12;;;;;;;3.08;1.25;;;4.10;89.80;;;;;;6246301;23;20205;-73
2023/12/06 01:53:46;;;;;;;2.65;1.20;;;4.20;89.60;;;;;;6246861;23;20241;-73
2023/12/06 01:56:14;;;;;;;2.42;0.90;;;4.20;89.40;;;;;;6246802;23;20229;-72
2023/12/06 01:58:41;;;;;;;3.30;1.10;;;4.20;88.80;;;;;;6246159;23;20186;-73
2023/12/06 02:01:10;;;;;;;2.58;1.23;;;4.30;88.80;;;;;;6246699;23;20501;-73
2023/12/06 02:03:37;;;;;;;2.67;1.50;;;4.30;88.60;;;;;;6246504;23;20166;-73
2023/12/06 02:06:04;;;;;;;2.22;1.20;;;4.30;89.20;;;;;;6246224;23;20194;-73
2023/12/06 02:08:32;;;;;;;3.55;1.58;;;4.30;88.80;;;;;;6246377;23;20456;-73
2023/12/06 02:11:00;;;;;;;2.20;0.90;;;4.30;88.90;;;;;;6246830;23;20518;-73
2023/12/06 02:13:28;;;;;;;2.42;1.15;;;4.40;88.60;;;;;;6246716;23;20166;-73
2023/12/06 02:15:55;;;;;;;2.50;1.20;;;4.40;88.50;;;;;;6246105;23;20205;-72
2023/12/06 02:18:23;;;;;;;2.80;1.15;;;4.50;88.20;;;;;;6246012;23;20201;-73
2023/12/06 02:20:50;;;;;;;3.35;1.10;;;4.50;88.30;;;;;;6246589;23;20506;-73
2023/12/06 02:23:18;;;;;;;1.90;0.85;;;4.50;88.40;;;;;;6245835;23;20206;-73
2023/12/06 02:25:46;;;;;;;1.90;0.90;;;4.60;87.30;;;;;;6246438;23;20479;-73
2023/12/06 02:28:13;;;;;;;2.05;1.10;;;4.60;87.90;;;;;;6246377;23;20245;-73
2023/12/06 02:30:45;;;;;;;1.98;0.80;;;4.60;86.90;;;;;;6245463;23;20245;-73
2023/12/06 02:33:12;;;;;;;2.00;1.00;;;4.60;87.20;;;;;;6246387;23;20155;-73
2023/12/06 02:35:46;;;;;;;2.38;0.98;;;4.70;87.40;;;;;;6246417;23;20166;-73
2023/12/06 02:38:16;;;;;;;1.90;0.88;;;4.70;87.40;;;;;;6246013;23;20229;-73
2023/12/06 02:40:49;;;;;;;2.20;1.00;;;4.70;87.50;;;;;;6246416;23;20198;-73
2023/12/06 02:43:17;;;;;;;2.33;1.08;;;4.70;87.60;;;;;;6248431;23;20204;-73
2023/12/06 02:45:44;;;;;;;2.47;1.13;;;4.70;87.40;;;;;;6272445;22;20288;-73
2023/12/06 02:48:11;;;;;;;3.85;1.27;;;4.70;87.00;;;;;;6279106;22;20203;-73
2023/12/06 02:50:38;;;;;;;1.90;0.80;;;4.70;87.20;;;;;;6279082;22;20201;-73
2023/12/06 02:53:05;;;;;;;2.38;1.13;;;4.70;86.90;;;;;;6279269;22;20201;-72
2023/12/06 02:55:32;;;;;;;1.90;0.80;;;4.70;86.80;;;;;;6278587;22;20646;-72
2023/12/06 02:58:00;;;;;;;2.90;0.98;;;4.70;86.50;;;;;;6278618;22;20201;-73
2023/12/06 03:00:28;;;;;;;2.10;1.17;;;4.70;86.20;;;;;;6278477;22;20272;-72
2023/12/06 03:02:55;;;;;;;8.05;1.10;;;4.70;86.60;;;;;;6278667;22;20165;-73
2023/12/06 03:05:22;;;;;;;2.78;1.20;;;4.70;87.00;;;;;;6278921;22;20220;-73
2023/12/06 03:07:53;;;;;;;2.75;0.90;;;4.70;86.90;;;;;;6278597;22;20176;-72
2023/12/06 03:10:20;;;;;;;2.25;0.88;;;4.80;86.50;;;;;;6278136;22;20158;-73
2023/12/06 03:12:47;;;;;;;2.25;1.17;;;4.80;86.70;;;;;;6278178;22;20165;-73
2023/12/06 03:15:16;;;;;;;3.30;1.00;;;4.70;87.00;;;;;;6278334;22;20678;-73
2023/12/06 03:17:43;;;;;;;2.95;1.10;;;4.80;86.90;;;;;;6278874;22;20193;-73
2023/12/06 03:20:10;;;;;;;2.35;1.10;;;4.80;86.70;;;;;;6278585;22;20240;-73
2023/12/06 03:22:37;;;;;;;2.65;1.30;;;4.80;86.80;;;;;;6278237;22;20162;-73
2023/12/06 03:25:07;;;;;;;2.35;1.27;;;4.80;86.60;;;;;;6278824;22;20204;-73
2023/12/06 03:27:34;;;;;;;2.30;1.20;;;4.80;86.80;;;;;;6278601;22;20687;-72
2023/12/06 03:30:01;;;;;;;2.95;1.30;;;4.70;86.90;;;;;;6278570;22;20543;-72
2023/12/06 03:32:29;;;;;;;2.20;1.20;;;4.70;87.10;;;;;;6277977;22;20200;-73
2023/12/06 03:34:56;;;;;;;2.20;1.10;;;4.70;86.70;;;;;;6278584;22;20197;-73
2023/12/06 03:37:23;;;;;;;2.38;1.10;;;4.80;87.00;;;;;;6278430;22;20535;-73
2023/12/06 03:39:50;;;;;;;2.00;0.75;;;4.80;87.10;;;;;;6278353;22;20185;-73
2023/12/06 03:42:19;;;;;;;2.30;0.82;;;4.80;86.60;;;;;;6278542;22;20253;-73
2023/12/06 03:44:46;;;;;;;2.83;1.40;;;4.80;86.60;;;;;;6278463;22;20660;-73
2023/12/06 03:47:13;;;;;;;2.90;1.33;;;4.80;87.00;;;;;;6278753;22;20161;-73
2023/12/06 03:49:41;;;;;;;2.30;1.10;;;4.80;87.30;;;;;;6278517;22;20744;-73
2023/12/06 03:52:09;;;;;;;2.35;1.02;;;4.80;87.30;;;;;;6278308;22;20197;-74
2023/12/06 03:54:37;;;;;;;2.25;1.30;;;4.80;87.40;;;;;;6278216;22;20169;-73
2023/12/06 03:57:05;;;;;;;2.25;0.80;;;4.90;86.70;;;;;;6278356;22;20538;-73
2023/12/06 03:59:34;;;;;;;4.95;1.10;;;4.90;86.50;;;;;;6277629;22;20575;-72
2023/12/06 04:02:01;;;;;;;2.22;0.90;;;4.80;86.70;;;;;;6278491;22;20193;-73
2023/12/06 04:04:29;;;;;;;3.05;1.30;;;4.90;86.60;;;;;;6278355;22;20241;-73
2023/12/06 04:06:58;;;;;;;2.10;0.90;;;4.80;86.20;;;;;;6277995;22;20172;-73
2023/12/06 04:09:25;;;;;;;3.80;1.00;;;4.90;86.00;;;;;;6277848;22;20204;-73
2023/12/06 04:11:53;;;;;;;2.53;1.00;;;4.90;85.40;;;;;;6278207;22;20197;-73
2023/12/06 04:14:21;;;;;;;2.10;0.90;;;4.80;85.70;;;;;;6277220;22;20460;-73
2023/12/06 04:16:49;;;;;;;2.08;1.00;;;4.90;85.00;;;;;;6277547;22;20166;-73
2023/12/06 04:19:16;;;;;;;2.75;1.10;;;4.90;84.30;;;;;;6277879;22;20189;-73
2023/12/06 04:21:43;;;;;;;7.60;0.88;;;4.90;84.00;;;;;;6278277;22;20483;-73
2023/12/06 04:24:11;;;;;;;1.70;0.70;;;4.90;84.40;;;;;;6277718;22;20249;-73
2023/12/06 04:26:38;;;;;;;1.92;0.90;;;4.90;84.80;;;;;;6277501;22;20188;-75
2023/12/06 04:29:10;;;;;;;2.10;1.00;;;5.00;84.90;;;;;;6278242;22;20162;-73
2023/12/06 04:31:38;;;;;;;1.80;0.80;;;5.00;84.80;;;;;;6278166;22;20158;-73
2023/12/06 04:34:05;;;;;;;2.17;0.95;;;5.00;84.70;;;;;;6278332;22;20166;-73
2023/12/06 04:36:32;;;;;;;2.10;0.90;;;5.00;84.70;;;;;;6277966;22;20555;-73
2023/12/06 04:38:59;;;;;;;3.00;0.90;;;5.00;84.40;;;;;;6277886;22;20197;-73
2023/12/06 04:41:27;;;;;;;2.00;0.80;;;5.00;84.50;;;;;;6277196;22;20166;-74
2023/12/06 04:43:54;;;;;;;2.13;0.85;;;5.10;84.30;;;;;;6277979;22;20194;-73
2023/12/06 04:46:21;;;;;;;2.10;1.00;;;5.10;84.10;;;;;;6277836;22;20229;-74
2023/12/06 04:48:48;;;;;;;2.08;1.00;;;5.10;83.70;;;;;;6277480;22;20600;-73
2023/12/06 04:51:16;;;;;;;1.95;0.80;;;5.10;83.60;;;;;;6277775;22;20244;-73
2023/12/06 04:53:43;;;;;;;2.20;1.02;;;5.10;83.80;;;;;;6277361;22;20166;-73
2023/12/06 04:56:12;;;;;;;1.70;0.80;;;5.10;83.60;;;;;;6277526;22;20172;-75
2023/12/06 04:58:41;;;;;;;1.90;0.80;;;5.20;83.40;;;;;;6277430;22;20519;-74
2023/12/06 05:01:08;;;;;;;3.17;0.90;;;5.20;82.90;;;;;;6277521;22;20221;-73
2023/12/06 05:03:35;;;;;;;3.45;0.90;;;5.20;82.60;;;;;;6277726;22;20162;-73
2023/12/06 05:06:05;;;;;;;3.03;1.08;;;5.20;82.50;;;;;;6277671;22;20166;-72
2023/12/06 05:08:37;;;;;;;2.63;1.05;;;5.20;82.60;;;;;;6277667;22;20193;-73
2023/12/06 05:11:04;;;;;;;1.90;0.70;;;5.20;82.40;;;;;;6277044;22;20511;-73
2023/12/06 05:13:31;;;;;;;4.78;0.80;;;5.20;82.40;;;;;;6277129;22;20683;-73
2023/12/06 05:16:00;;;;;;;1.90;0.80;;;5.20;82.50;;;;;;6277196;22;20647;-73
2023/12/06 05:18:27;;;;;;;4.88;1.85;;;5.20;82.50;;;;;;6277603;22;20165;-73
2023/12/06 05:20:54;;;;;;;3.58;1.52;;;5.20;82.50;;;;;;6277548;22;20182;-73
2023/12/06 05:23:22;;;;;;;3.40;2.17;;;5.20;82.30;;;;;;6277133;22;20244;-73
2023/12/06 05:25:49;;;;;;;3.33;1.50;;;5.20;82.40;;;;;;6277037;22;20165;-74
2023/12/06 05:28:17;;;;;;;2.00;0.90;;;5.20;82.10;;;;;;6276628;22;20197;-73
2023/12/06 05:30:45;;;;;;;2.60;0.80;;;5.20;82.20;;;;;;6276640;22;20211;-73
2023/12/06 05:33:14;;;;;;;2.10;0.90;;;5.30;82.00;;;;;;6277445;22;20477;-73
2023/12/06 05:35:41;;;;;;;2.00;0.98;;;5.30;81.60;;;;;;6277383;22;20172;-74
2023/12/06 05:38:08;;;;;;;5.10;1.00;;;5.30;81.60;;;;;;6277164;22;20193;-73
2023/12/06 05:40:35;;;;;;;1.90;0.80;;;5.30;81.80;;;;;;6277285;22;20502;-73
2023/12/06 05:43:03;;;;;;;2.00;1.00;;;5.30;81.90;;;;;;6277561;22;20170;-73
2023/12/06 05:45:30;;;;;;;1.90;0.85;;;5.30;81.60;;;;;;6277266;22;20239;-73
2023/12/06 05:47:57;;;;;;;1.90;0.75;;;5.30;81.70;;;;;;6277455;22;20488;-73
2023/12/06 05:50:26;;;;;;;1.90;0.90;;;5.30;81.30;;;;;;6277318;22;20170;-73
2023/12/06 05:52:55;;;;;;;2.10;0.80;;;5.30;80.60;;;;;;6274133;22;20170;-73
2023/12/06 05:55:26;;;;;;;2.10;0.90;;;5.30;80.70;;;;;;6276641;22;20169;-73
2023/12/06 05:57:53;;;;;;;2.58;2.35;;;5.30;80.80;;;;;;6276474;22;20157;-73
2023/12/06 06:00:20;;;;;;;2.53;1.05;;;5.30;80.90;;;;;;6276535;22;20507;-73
2023/12/06 06:02:47;;;;;;;1.70;0.80;;;5.30;80.90;;;;;;6276603;22;20204;-72
2023/12/06 06:05:16;;;;;;;2.03;0.90;;;5.30;80.90;;;;;;6276593;22;20162;-73
2023/12/06 06:07:45;;;;;;;2.38;0.80;;;5.30;80.80;;;;;;6276360;22;20165;-74
2023/12/06 06:10:12;;;;;;;2.10;0.80;;;5.30;80.50;;;;;;6275999;22;20177;-72
2023/12/06 06:12:40;;;;;;;1.90;0.80;;;5.40;80.60;;;;;;6276063;22;20172;-72
2023/12/06 06:15:08;;;;;;;2.65;0.90;;;5.30;80.70;;;;;;6275840;22;20203;-74
2023/12/06 06:17:35;;;;;;;2.28;1.00;;;5.40;80.90;;;;;;6277848;22;20244;-73
2023/12/06 06:20:02;;;;;;;2.40;0.98;;;5.30;80.50;;;;;;6278649;22;20272;-73
2023/12/06 06:22:29;;;;;;;1.80;0.80;;;5.30;80.30;;;;;;6278657;22;20223;-73
2023/12/06 06:24:57;;;;;;;3.65;1.15;;;5.30;80.10;;;;;;6278246;22;20526;-75
2023/12/06 06:27:29;;;;;;;2.50;1.20;;;5.40;80.20;;;;;;6278283;22;20157;-73
2023/12/06 06:29:56;;;;;;;2.28;1.15;;;5.30;80.30;;;;;;6278487;22;20192;-74
2023/12/06 06:32:28;;;;;;;2.65;1.30;;;5.40;80.30;;;;;;6278738;22;20200;-75
2023/12/06 06:34:55;;;;;;;2.97;1.50;;;5.40;80.00;;;;;;6278264;22;20192;-73
2023/12/06 06:37:22;;;;;;;2.10;1.00;;;5.40;80.00;;;;;;6277865;22;20201;-73
2023/12/06 06:39:49;;;;;;;2.00;1.17;;;5.40;80.00;;;;;;6278513;22;20162;-73
2023/12/06 06:42:18;;;;;;;2.15;1.27;;;5.40;79.60;;;;;;6277937;22;20170;-73
2023/12/06 06:44:45;;;;;;;2.30;1.02;;;5.30;79.70;;;;;;6277879;22;20217;-73
2023/12/06 06:47:12;;;;;;;3.95;1.77;;;5.30;79.80;;;;;;6278421;22;20162;-73
2023/12/06 06:49:40;;;;;;;2.72;1.15;;;5.30;79.90;;;;;;6278284;22;20177;-75
2023/12/06 06:52:07;;;;;;;4.65;2.90;;;5.40;79.90;;;;;;6278013;22;20679;-73
2023/12/06 06:54:35;;;;;;;7.93;3.97;;;5.40;79.40;;;;;;6277644;22;20172;-73
2023/12/06 06:57:01;;;;;;;2.70;1.40;;;5.40;79.90;;;;;;6277643;22;20169;-74
2023/12/06 06:59:30;;;;;;;2.80;1.40;;;5.30;80.00;;;;;;6277393;22;20672;-74
2023/12/06 07:01:57;;;;;;;2.10;1.10;;;5.40;79.90;;;;;;6277802;22;20217;-73
2023/12/06 07:04:24;;;;;;;1.70;0.60;;;5.30;79.90;;;;;;6277894;22;20204;-74
2023/12/06 07:06:50;;;;;;;2.10;0.90;;;5.40;80.30;;;;;;6277533;22;20191;-73
2023/12/06 07:09:17;;;;;;;2.25;0.93;;;5.30;80.10;;;;;;6277333;22;20196;-74
2023/12/06 07:11:45;;;;;;;4.50;1.08;;;5.30;79.70;;;;;;6278014;22;20165;-73
2023/12/06 07:14:12;;;;;;;2.70;0.90;;;5.40;79.50;;;;;;6277465;22;20779;-73
2023/12/06 07:16:40;;;;;;;2.92;1.00;;;5.40;79.40;;;;;;6277784;22;20161;-74
2023/12/06 07:19:07;;;;;;;2.53;1.10;;;5.40;79.50;;;;;;6273124;22;20189;-74
2023/12/06 07:21:34;;;;;;;2.83;1.15;;;5.40;79.10;;;;;;6277163;22;20221;-73
2023/12/06 07:24:01;;;;;;;2.40;1.10;;;5.40;78.80;;;;;;6277429;22;20209;-73
2023/12/06 07:26:28;;;;;;;2.97;1.08;;;5.40;78.80;;;;;;6276849;22;20538;-73
2023/12/06 07:28:55;;;;;;;5.50;1.42;;;5.50;78.70;;;;;;6276794;22;20208;-77
2023/12/06 07:31:22;;;;;;;2.58;0.90;;;5.50;79.00;;;;;;6276981;22;20176;-73
2023/12/06 07:33:51;;;;;;;2.13;1.02;;;5.50;79.00;;;;;;6277131;22;20208;-73
2023/12/06 07:36:18;;;;;;;2.25;0.90;;;5.50;78.90;;;;;;6276858;22;20166;-74
2023/12/06 07:38:45;;;;;;;3.25;1.13;;;5.50;78.80;;;;;;6276236;22;20249;-74
2023/12/06 07:41:12;;;;;;;1.90;0.90;;;5.60;79.00;;;;;;6277100;22;20217;-74
2023/12/06 07:43:40;;;;;;;3.15;1.38;;;5.50;79.00;;;;;;6277300;22;20170;-75
2023/12/06 07:46:08;;;;;;;2.20;0.93;;;5.60;79.00;;;;;;6277115;22;20213;-74
2023/12/06 07:48:35;;;;;;;2.60;1.10;;;5.60;78.90;;;;;;6277787;22;20181;-74
2023/12/06 07:51:04;;;;;;;2.17;1.45;;;5.60;79.00;;;;;;6276292;22;20265;-73
2023/12/06 07:53:31;;;;;;;1.77;0.70;;;5.60;79.00;;;;;;6275805;22;20643;-73
2023/12/06 07:55:59;;;;;;;2.17;1.20;;;5.60;79.00;;;;;;6276665;22;20543;-76
2023/12/06 07:58:30;;;;;;;1.80;0.80;;;5.60;79.30;;;;;;6277473;22;20238;-73
2023/12/06 08:00:57;;;;;;;2.53;0.90;;;5.70;79.30;;;;;;6277438;22;20178;-73
2023/12/06 08:03:26;;;;;;;1.80;0.77;;;5.70;79.70;;;;;;6277137;22;20162;-73
2023/12/06 08:05:53;;;;;;;2.13;1.00;;;5.60;80.60;;;;;;6277964;22;20173;-73
2023/12/06 08:08:22;;;;;;;2.15;0.98;;;5.60;80.20;;;;;;6277531;22;20605;-73
2023/12/06 08:10:49;;;;;;;1.95;0.80;;;5.70;80.60;;;;;;6278015;22;20169;-73
2023/12/06 08:13:16;;;;;;;2.45;1.00;;;5.70;80.20;;;;;;6277604;22;20188;-73
2023/12/06 08:15:43;;;;;;;1.88;0.90;;;5.70;80.30;;;;;;6278025;22;20235;-73
2023/12/06 08:18:10;;;;;;;2.92;1.15;;;5.70;80.50;;;;;;6277871;22;20240;-73
2023/12/06 08:20:37;;;;;;;1.83;0.85;;;5.70;80.50;;;;;;6277867;22;20224;-73
2023/12/06 08:23:08;;;;;;;2.65;1.00;;;5.70;80.50;;;;;;6277454;22;20197;-73
2023/12/06 08:25:36;;;;;;;2.15;1.20;;;5.70;80.90;;;;;;6278011;22;20256;-74
2023/12/06 08:28:03;;;;;;;4.15;1.13;;;5.70;81.00;;;;;;6277437;22;20263;-73
2023/12/06 08:30:30;;;;;;;2.20;0.95;;;5.70;81.00;;;;;;6277352;22;20645;-73
2023/12/06 08:32:57;;;;;;;2.05;1.02;;;5.70;81.30;;;;;;6277738;22;20173;-74
2023/12/06 08:35:24;;;;;;;2.47;1.10;;;5.70;81.50;;;;;;6277685;22;20166;-73
2023/12/06 08:37:51;;;;;;;1.80;0.80;;;5.60;81.80;;;;;;6277822;22;20433;-73
2023/12/06 08:40:18;;;;;;;1.75;0.80;;;5.60;82.00;;;;;;6277193;22;20188;-73
2023/12/06 08:42:46;;;;;;;3.95;0.85;;;5.70;82.20;;;;;;6277210;22;20197;-74
2023/12/06 08:45:15;;;;;;;1.90;0.60;;;5.70;82.30;;;;;;6277360;22;20272;-73
2023/12/06 08:47:42;;;;;;;2.30;1.10;;;5.70;82.30;;;;;;6277234;22;20177;-73
2023/12/06 08:50:10;;;;;;;2.25;1.05;;;5.70;82.00;;;;;;6277569;22;20248;-73
2023/12/06 08:52:37;;;;;;;2.15;1.00;;;5.70;82.00;;;;;;6277518;22;20240;-73
2023/12/06 08:55:04;;;;;;;2.30;1.17;;;5.70;82.30;;;;;;6277401;22;20628;-73
2023/12/06 08:57:31;;;;;;;2.33;1.10;;;5.70;82.30;;;;;;6277662;22;20172;-73
2023/12/06 09:00:00;;;;;;;2.55;0.88;;;5.80;82.40;;;;;;6277476;22;20165;-73
2023/12/06 09:02:26;;;;;;;2.40;1.10;;;5.80;82.40;;;;;;6277354;22;20243;-73
2023/12/06 09:04:55;;;;;;;1.80;0.90;;;5.80;82.40;;;;;;6277386;22;20203;-75
2023/12/06 09:07:22;;;;;;;2.10;0.90;;;5.80;82.40;;;;;;6277019;22;20663;-73
2023/12/06 09:09:48;;;;;;;2.45;2.05;;;5.90;82.20;;;;;;6274613;22;20244;-74
2023/12/06 09:12:15;;;;;;;1.92;0.90;;;5.90;82.20;;;;;;6277472;22;20550;-75
2023/12/06 09:14:42;;;;;;;2.78;1.05;;;5.90;82.20;;;;;;6277461;22;20561;-73
2023/12/06 09:17:10;;;;;;;1.80;0.80;;;5.90;82.50;;;;;;6277204;22;20168;-73
2023/12/06 09:19:37;;;;;;;1.95;0.90;;;6.00;82.50;;;;;;6277175;22;20249;-74
2023/12/06 09:22:05;;;;;;;2.25;0.90;;;6.00;82.30;;;;;;6276647;22;20269;-73
2023/12/06 09:24:32;;;;;;;2.03;0.93;;;6.00;82.40;;;;;;6277279;22;20161;-74
2023/12/06 09:26:58;;;;;;;6.80;1.10;;;6.00;82.00;;;;;;6276920;22;20197;-74
2023/12/06 09:29:25;;;;;;;2.40;1.27;;;6.00;82.70;;;;;;6277122;22;20241;-74
2023/12/06 09:31:52;;;;;;;2.30;1.10;;;6.10;82.90;;;;;;6277257;22;20244;-73
2023/12/06 09:34:20;;;;;;;2.08;0.90;;;6.10;82.80;;;;;;6277294;22;20189;-73
2023/12/06 09:36:47;;;;;;;2.25;1.15;;;6.10;82.50;;;;;;6277171;22;20216;-73
2023/12/06 09:39:15;;;;;;;2.30;1.00;;;6.20;81.80;;;;;;6276642;22;20181;-74
2023/12/06 09:41:44;;;;;;;4.20;1.35;;;6.20;82.10;;;;;;6276685;22;20265;-74
2023/12/06 09:44:11;;;;;;;2.25;1.00;;;6.40;82.50;;;;;;6276525;22;20268;-75
2023/12/06 09:46:38;;;;;;;1.83;0.82;;;6.40;81.50;;;;;;6276823;22;20249;-75
2023/12/06 09:49:05;;;;;;;1.85;0.95;;;6.50;80.60;;;;;;6277134;22;20165;-75
2023/12/06 09:51:33;;;;;;;2.30;1.00;;;6.60;80.70;;;;;;6276115;22;20170;-75
2023/12/06 09:54:00;;;;;;;2.10;1.02;;;6.70;80.60;;;;;;6277037;22;20241;-75
2023/12/06 09:56:28;;;;;;;1.90;0.90;;;6.80;80.00;;;;;;6275695;22;20639;-75
2023/12/06 09:58:55;;;;;;;2.50;1.17;;;7.00;79.40;;;;;;6276530;22;20197;-75
2023/12/06 10:01:22;;;;;;;3.70;0.90;;;7.30;79.20;;;;;;6276952;22;20272;-75
2023/12/06 10:03:50;;;;;;;2.10;1.00;;;7.50;78.80;;;;;;6276895;22;20166;-75
2023/12/06 10:06:18;;;;;;;2.10;1.02;;;7.80;77.70;;;;;;6276959;22;20193;-74
2023/12/06 10:08:51;;;;;;;2.00;0.90;;;8.00;75.20;;;;;;6276868;22;20245;-75
2023/12/06 10:11:23;;;;;;;2.08;1.00;;;8.10;73.30;;;;;;6276183;22;20158;-75
2023/12/06 10:13:49;;;;;;;1.88;0.85;;;8.30;72.40;;;;;;6276952;22;20193;-75
2023/12/06 10:16:19;;;;;;;3.40;1.17;;;8.30;70.50;;;;;;6276551;22;20241;-74
2023/12/06 10:18:48;;;;;;;2.60;1.10;;;8.40;69.20;;;;;;6276835;22;20241;-75
2023/12/06 10:21:15;;;;;;;2.30;1.00;;;8.30;67.60;;;;;;6276711;22;20189;-75
2023/12/06 10:23:42;;;;;;;2.25;1.00;;;8.20;68.10;;;;;;6276839;22;20219;-75
2023/12/06 10:26:15;;;;;;;2.00;0.80;;;8.20;67.50;;;;;;6276406;22;20591;-75
2023/12/06 10:28:42;;;;;;;1.90;0.90;;;8.10;67.50;;;;;;6276781;22;20149;-75
2023/12/06 10:31:09;;;;;;;2.00;1.00;;;8.10;67.70;;;;;;6276323;22;20185;-75
2023/12/06 10:33:39;;;;;;;2.25;0.95;;;8.10;67.70;;;;;;6276986;22;20193;-74
2023/12/06 10:36:08;;;;;;;2.70;1.15;;;8.10;66.50;;;;;;6276670;22;20245;-74
2023/12/06 10:38:37;;;;;;;1.80;0.88;;;8.00;66.70;;;;;;6276424;22;20616;-75
2023/12/06 10:41:08;;;;;;;2.00;1.08;;;8.00;66.80;;;;;;6276773;22;20240;-74
2023/12/06 10:43:37;;;;;;;2.08;0.90;;;7.90;66.90;;;;;;6276973;22;20157;-75
2023/12/06 10:46:05;;;;;;;2.90;1.10;;;7.80;67.00;;;;;;6276101;22;20663;-75
2023/12/06 10:48:34;;;;;;;1.90;1.00;;;7.80;67.00;;;;;;6276743;22;20194;-75
2023/12/06 10:51:02;;;;;;;4.63;2.40;;;7.70;67.20;;;;;;6276599;22;20173;-75
2023/12/06 10:53:32;;;;;;;2.92;1.42;;;7.70;67.50;;;;;;6277152;22;20198;-75
2023/12/06 10:56:01;;;;;;;2.50;1.70;;;7.70;67.60;;;;;;6276680;22;20611;-75
2023/12/06 10:58:28;;;;;;;2.38;1.23;;;7.60;67.60;;;;;;6276344;22;20675;-75
2023/12/06 11:00:58;;;;;;;1.98;0.93;;;7.50;67.70;;;;;;6276857;22;20170;-75
2023/12/06 11:03:30;;;;;;;2.20;1.25;;;7.50;67.90;;;;;;6277829;22;20231;-75
2023/12/06 11:06:03;;;;;;;2.22;1.10;;;7.50;67.80;;;;;;6278257;22;20154;-75
2023/12/06 11:08:51;;;;;;;2.20;1.10;;;7.50;67.30;;;;;;6278784;22;20189;-74
2023/12/06 11:11:37;;;;;;;2.00;0.80;;;7.50;67.50;;;;;;6278552;22;20209;-74
2023/12/06 11:14:19;;;;;;;2.00;1.10;;;7.40;67.60;;;;;;6278682;22;20188;-74
2023/12/06 11:17:04;;;;;;;2.20;1.10;;;7.40;68.50;;;;;;6278661;22;20154;-75
2023/12/06 11:19:32;;;;;;;2.20;1.17;;;7.40;67.90;;;;;;6278515;22;20233;-75
2023/12/06 11:21:58;;;;;;;1.90;0.90;;;7.40;66.80;;;;;;6278406;22;20252;-75
2023/12/06 11:24:25;;;;;;;2.85;1.17;;;7.30;67.50;;;;;;6278038;22;20166;-75
2023/12/06 11:26:53;;;;;;;2.10;1.13;;;7.30;68.20;;;;;;6277955;22;20197;-75
2023/12/06 11:29:21;;;;;;;2.47;1.27;;;7.30;68.60;;;;;;6278276;22;20166;-75
2023/12/06 11:31:57;;;;;;;2.35;0.88;;;7.20;68.60;;;;;;6278348;22;20503;-75
2023/12/06 11:34:33;;;;;;;2.20;0.90;;;7.20;68.70;;;;;;6278418;22;20228;-75
2023/12/06 11:37:01;;;;;;;2.67;1.80;;;7.20;68.80;;;;;;6277978;22;20196;-75
2023/12/06 11:39:27;;;;;;;3.05;1.00;;;7.20;69.00;;;;;;6278306;22;20268;-75
2023/12/06 11:41:55;;;;;;;2.65;1.25;;;7.20;69.30;;;;;;6277938;22;20204;-74
2023/12/06 11:44:23;;;;;;;2.22;0.95;;;7.10;69.50;;;;;;6276571;22;20193;-75
2023/12/06 11:46:52;;;;;;;2.10;1.20;;;7.10;69.50;;;;;;6278230;22;20227;-75
2023/12/06 11:49:21;;;;;;;2.00;1.23;;;7.10;69.70;;;;;;6278413;22;20197;-75
2023/12/06 11:51:53;;;;;;;2.97;1.20;;;7.10;69.70;;;;;;6278110;22;20243;-75
2023/12/06 11:54:20;;;;;;;2.45;1.58;;;7.10;70.10;;;;;;6278237;22;20149;-75
2023/12/06 11:56:47;;;;;;;2.50;1.40;;;7.10;70.10;;;;;;6278170;22;20522;-75
2023/12/06 11:59:14;;;;;;;4.35;2.03;;;7.00;70.40;;;;;;6278067;22;20216;-75
2023/12/06 12:01:42;;;;;;;2.92;1.40;;;7.00;71.10;;;;;;6278124;22;20197;-76
2023/12/06 12:04:11;;;;;;;2.70;1.60;;;7.00;71.10;;;;;;6277929;22;20248;-75
2023/12/06 12:06:37;;;;;;;4.50;2.85;;;7.00;71.50;;;;;;6277740;22;20173;-75
2023/12/06 12:09:05;;;;;;;3.85;2.05;;;7.00;71.50;;;;;;6277884;22;20543;-74
2023/12/06 12:11:33;;;;;;;2.65;1.50;;;7.00;71.30;;;;;;6277877;22;20193;-74
2023/12/06 12:14:00;;;;;;;2.45;1.30;;;7.00;70.90;;;;;;6277275;22;20162;-75
2023/12/06 12:16:27;;;;;;;3.85;2.35;;;7.00;71.10;;;;;;6278227;22;20161;-75
2023/12/06 12:18:56;;;;;;;3.38;1.92;;;7.00;71.60;;;;;;6277948;22;20202;-74
2023/12/06 12:21:29;;;;;;;3.10;2.00;;;6.90;71.80;;;;;;6277540;22;20671;-74
2023/12/06 12:23:57;;;;;;;2.97;1.77;;;6.90;72.60;;;;;;6277478;22;20154;-75
2023/12/06 12:26:24;;;;;;;3.55;1.67;;;6.80;72.90;;;;;;6277813;22;20219;-75
2023/12/06 12:28:51;;;;;;;2.53;1.30;;;6.80;73.40;;;;;;6277361;22;20200;-74
2023/12/06 12:31:21;;;;;;;2.80;1.40;;;6.80;73.60;;;;;;6277739;22;20197;-75
2023/12/06 12:33:48;;;;;;;2.40;1.30;;;6.80;73.60;;;;;;6277687;22;20198;-75
2023/12/06 12:36:16;;;;;;;2.88;1.20;;;6.80;73.60;;;;;;6277343;22;20257;-75
2023/12/06 12:38:45;;;;;;;2.47;1.30;;;6.80;73.50;;;;;;6277622;22;20601;-74
2023/12/06 12:41:13;;;;;;;2.47;1.40;;;6.80;72.10;;;;;;6277193;22;20172;-75
2023/12/06 12:43:40;;;;;;;3.03;1.65;;;6.80;72.20;;;;;;6277754;22;20198;-75
2023/12/06 12:46:07;;;;;;;2.55;1.65;;;6.70;73.00;;;;;;6278080;22;20221;-74
2023/12/06 12:48:34;;;;;;;3.25;1.50;;;6.70;72.80;;;;;;6276660;22;20166;-74
2023/12/06 12:51:22;;;;;;;2.20;1.30;;;6.70;72.90;;;;;;6277677;22;20622;-75
2023/12/06 12:53:50;;;;;;;3.00;1.40;;;6.70;73.00;;;;;;6268327;22;20260;-75
2023/12/06 12:56:18;;;;;;;2.35;1.20;;;6.60;72.80;;;;;;6277897;22;20240;-74
2023/12/06 12:58:46;;;;;;;6.45;1.75;;;6.60;72.80;;;;;;6277280;22;20252;-75
2023/12/06 13:01:13;;;;;;;2.92;1.50;;;6.60;72.80;;;;;;6276966;22;20481;-75